WIHH METAR and TAF | Updated Today

WIHH METAR

Halim Perdanakusuma International Airport

Halim Perdanakusuma International Airport (WIHH) hasn't published a METAR.
We found the following current weather conditions for Cempaka-udik from other sources.

Halim Perdanakusuma International Airport (WIHH) METAR

  • Weather conditions right now at WIHH:
  • Present conditions: Clouds
  • Clouds: Overcast clouds
  • Cloud cover: 100%
  • Wind: 168 at 3kts
  • Temperature: 25.5 celsius
  • Feels like: 26.2 celsius
  • Pressure: 1008mb
  • Humidity: 81%


Useful to know...

WIHH TAF

Halim Perdanakusuma International Airport

TAF WIHH 291700Z 2918/3018 16004KT 5000 HZ FEW022 BECMG 3002/3004 09010KT 6000 SCT020
Observation time: 4:52 hr. ago
Need help? Read our tutorial on how to read TAFs or read the parsed version below.

Parsed version of TAF for Halim Perdanakusuma International Airport (WIHH)

  • From 29 September at 18:00 UTC, to day 30 of the month at 18:00 UTC
  • Clouds: A few at 671 meters
  • Visibility: 5000 meters
  • Wind: 160 degrees at 4
  • Other: Haze
  • Expected to arise soon, from 30 September at 02:00 UTC, to day 30 of the month at 04:00 UTC
  • Clouds: Scattered at 610 meters
  • Visibility: 6000 meters
  • Wind: 90 degrees at 10